createdAt,value
2019-01-21T00:04:32.432Z,42.59
2019-01-21T00:07:00.569Z,42.58
2019-01-21T00:09:28.798Z,42.43
2019-01-21T00:12:15.867Z,42.48
2019-01-21T00:17:22.342Z,42.61
2019-01-21T00:19:47.466Z,42.38
2019-01-21T00:22:15.624Z,42.55
2019-01-21T00:24:43.812Z,42.31
2019-01-21T00:27:11.990Z,42.28
2019-01-21T00:32:27.273Z,42.52
2019-01-21T00:34:55.463Z,42.60
2019-01-21T00:37:23.640Z,42.36
2019-01-21T00:39:51.817Z,42.31
2019-01-21T00:42:19.959Z,42.44
2019-01-21T00:44:48.148Z,42.02
2019-01-21T00:47:16.315Z,42.38
2019-01-21T00:49:44.456Z,42.19
2019-01-21T00:52:12.623Z,42.36
2019-01-21T00:54:59.692Z,42.33
2019-01-21T00:57:27.852Z,42.06
2019-01-21T00:59:56.004Z,42.34
2019-01-21T01:02:24.132Z,42.52
2019-01-21T01:04:52.313Z,42.42
2019-01-21T01:07:20.467Z,42.25
2019-01-21T01:09:48.638Z,42.29
2019-01-21T01:12:16.791Z,42.06
2019-01-21T01:14:44.968Z,42.11
2019-01-21T01:17:13.119Z,42.09
2019-01-21T01:19:41.256Z,42.15
2019-01-21T01:22:09.425Z,41.98
2019-01-21T01:24:37.596Z,42.13
2019-01-21T01:27:05.763Z,42.10
2019-01-21T01:29:33.925Z,42.28
2019-01-21T01:32:02.152Z,42.16
2019-01-21T01:34:30.307Z,42.20
2019-01-21T01:36:58.471Z,42.12
2019-01-21T01:39:26.652Z,42.25
2019-01-21T01:44:41.981Z,41.93
2019-01-21T01:47:10.154Z,42.03
2019-01-21T01:49:38.307Z,41.87
2019-01-21T01:52:06.501Z,41.93
2019-01-21T01:54:34.671Z,41.80
2019-01-21T01:57:02.845Z,41.87
2019-01-21T01:59:31.010Z,41.98
2019-01-21T02:01:59.168Z,41.88
2019-01-21T02:04:27.320Z,42.00
2019-01-21T02:06:55.478Z,41.93
2019-01-21T02:09:25.336Z,41.78
2019-01-21T02:11:53.479Z,41.99
2019-01-21T02:14:21.645Z,41.73
2019-01-21T02:16:49.858Z,41.80
2019-01-21T02:19:18.007Z,41.67
2019-01-21T02:21:46.292Z,41.67
2019-01-21T02:24:14.522Z,41.71
2019-01-21T02:27:09.778Z,41.88
2019-01-21T02:29:57.050Z,41.78
2019-01-21T02:32:44.355Z,41.70
2019-01-21T02:35:31.635Z,41.77
2019-01-21T02:38:18.952Z,41.73
2019-01-21T02:41:06.187Z,41.79
2019-01-21T02:46:46.255Z,41.70
2019-01-21T02:49:33.516Z,41.92
2019-01-21T02:52:20.740Z,42.04
2019-01-21T02:55:08.031Z,42.06
2019-01-21T02:57:55.297Z,41.76
2019-01-21T03:00:42.589Z,41.75
2019-01-21T03:03:29.896Z,41.64
2019-01-21T03:06:18.830Z,41.67
2019-01-21T03:09:06.112Z,41.35
2019-01-21T03:11:53.362Z,41.56
2019-01-21T03:14:26.300Z,41.57
2019-01-21T03:17:13.537Z,41.68
2019-01-21T03:19:45.298Z,41.50
2019-01-21T03:22:32.547Z,41.58
2019-01-21T03:25:19.785Z,41.54
2019-01-21T03:28:11.645Z,41.63
2019-01-21T03:30:58.886Z,41.73
2019-01-21T03:33:46.094Z,41.44
2019-01-21T03:36:33.405Z,41.24
2019-01-21T03:39:20.640Z,41.44
2019-01-21T03:44:59.294Z,41.52
2019-01-21T03:47:32.625Z,41.54
2019-01-21T03:50:19.871Z,41.57
2019-01-21T03:53:07.109Z,41.75
2019-01-21T03:55:35.300Z,41.42
2019-01-21T03:58:22.632Z,41.14
2019-01-21T04:01:09.903Z,41.39
2019-01-21T04:03:57.123Z,41.45
2019-01-21T04:06:44.353Z,41.14
2019-01-21T04:09:31.598Z,41.29
2019-01-21T04:12:18.868Z,41.23
2019-01-21T04:15:06.220Z,41.16
2019-01-21T04:17:53.476Z,41.13
2019-01-21T04:20:40.759Z,40.85
2019-01-21T04:23:28.013Z,40.96
2019-01-21T04:26:15.297Z,40.91
2019-01-21T04:29:02.631Z,40.78
2019-01-21T04:31:49.900Z,40.91
2019-01-21T04:34:37.171Z,41.15
2019-01-21T04:37:24.438Z,40.84
2019-01-21T04:40:11.929Z,40.91
2019-01-21T04:42:59.456Z,40.90
2019-01-21T04:45:46.779Z,40.83
2019-01-21T04:48:34.081Z,40.82
2019-01-21T04:51:21.628Z,40.92
2019-01-21T04:54:09.115Z,40.80
2019-01-21T04:56:56.344Z,41.03
2019-01-21T04:59:43.709Z,40.86
2019-01-21T05:02:31.272Z,40.71
2019-01-21T05:05:18.815Z,40.86
2019-01-21T05:08:06.088Z,40.95
2019-01-21T05:10:53.345Z,40.51
2019-01-21T05:13:40.577Z,40.69
2019-01-21T05:16:27.867Z,40.73
2019-01-21T05:19:15.157Z,40.76
2019-01-21T05:22:02.453Z,40.76
2019-01-21T05:24:49.679Z,40.72
2019-01-21T05:27:36.936Z,40.91
2019-01-21T05:30:24.191Z,40.79
2019-01-21T05:33:11.416Z,40.87
2019-01-21T05:36:00.304Z,40.36
2019-01-21T05:38:47.614Z,40.41
2019-01-21T05:41:19.258Z,40.53
2019-01-21T05:43:52.762Z,39.89
2019-01-21T05:46:40.090Z,40.63
2019-01-21T05:49:28.460Z,40.68
2019-01-21T05:55:09.341Z,40.38
2019-01-21T05:57:56.586Z,40.42
2019-01-21T06:00:43.818Z,40.60
2019-01-21T06:03:31.195Z,40.10
2019-01-21T06:06:18.473Z,40.04
2019-01-21T06:09:05.734Z,40.25
2019-01-21T06:11:37.431Z,39.77
2019-01-21T06:14:24.674Z,40.14
2019-01-21T06:16:56.981Z,40.19
2019-01-21T06:19:44.251Z,40.12
2019-01-21T06:22:31.530Z,40.12
2019-01-21T06:25:18.772Z,40.11
2019-01-21T06:28:06.057Z,40.13
2019-01-21T06:30:53.335Z,40.11
2019-01-21T06:33:40.602Z,40.07
2019-01-21T06:36:12.149Z,40.09
2019-01-21T06:38:59.406Z,39.96
2019-01-21T06:41:46.657Z,39.86
2019-01-21T06:44:22.984Z,40.02
2019-01-21T06:46:56.329Z,39.82
2019-01-21T06:49:43.649Z,39.88
2019-01-21T06:52:30.908Z,40.04
2019-01-21T06:55:18.222Z,39.91
2019-01-21T06:58:05.490Z,39.77
2019-01-21T07:00:52.800Z,39.92
2019-01-21T07:03:40.049Z,39.80
2019-01-21T07:06:27.328Z,40.08
2019-01-21T07:09:14.630Z,39.88
2019-01-21T07:12:01.925Z,39.54
2019-01-21T07:14:38.800Z,39.75
2019-01-21T07:17:33.546Z,39.48
2019-01-21T07:20:20.754Z,39.54
2019-01-21T07:23:08.095Z,39.77
2019-01-21T07:25:55.321Z,39.80
2019-01-21T07:28:28.026Z,39.57
2019-01-21T07:31:15.277Z,38.87
2019-01-21T07:34:02.548Z,38.79
2019-01-21T07:36:49.844Z,39.07
2019-01-21T07:39:22.808Z,38.46
2019-01-21T07:42:10.036Z,38.68
2019-01-21T07:44:57.302Z,38.84
2019-01-21T07:47:44.550Z,39.12
2019-01-21T07:50:31.786Z,38.77
2019-01-21T07:53:19.004Z,39.16
2019-01-21T07:56:01.033Z,39.04
2019-01-21T07:58:48.261Z,39.23
2019-01-21T08:01:35.498Z,38.55
2019-01-21T08:04:22.745Z,39.03
2019-01-21T08:07:09.979Z,39.06
2019-01-21T08:09:57.222Z,39.14
2019-01-21T08:12:44.445Z,39.37
2019-01-21T08:15:31.697Z,39.14
2019-01-21T08:18:18.946Z,39.21
2019-01-21T08:20:51.057Z,38.66
2019-01-21T08:23:38.280Z,38.58
2019-01-21T08:26:25.505Z,39.03
2019-01-21T08:29:00.942Z,39.16
2019-01-21T08:31:48.182Z,38.91
2019-01-21T08:34:35.388Z,38.41
2019-01-21T08:37:22.622Z,38.86
2019-01-21T08:40:03.715Z,38.65
2019-01-21T08:42:50.968Z,38.61
2019-01-21T08:45:38.184Z,38.81
2019-01-21T08:48:25.464Z,38.64
2019-01-21T08:51:06.051Z,37.22
2019-01-21T08:53:53.285Z,38.51
2019-01-21T08:56:40.522Z,38.04
2019-01-21T08:59:27.763Z,38.49
2019-01-21T09:02:14.988Z,38.15
2019-01-21T09:05:02.227Z,38.25
2019-01-21T09:07:49.459Z,38.88
2019-01-21T09:10:36.672Z,39.08
2019-01-21T09:13:23.946Z,38.95
2019-01-21T09:16:11.211Z,37.88
2019-01-21T09:18:58.451Z,39.17
2019-01-21T09:21:45.725Z,38.86
2019-01-21T09:24:32.967Z,38.65
2019-01-21T09:27:20.225Z,38.15
2019-01-21T09:30:07.478Z,39.22
2019-01-21T09:32:54.713Z,39.12
2019-01-21T09:35:41.951Z,38.52
2019-01-21T09:38:29.177Z,37.66
2019-01-21T09:41:16.396Z,39.19
2019-01-21T09:44:03.621Z,38.75
2019-01-21T09:46:39.699Z,39.01
2019-01-21T09:49:07.060Z,39.01
2019-01-21T09:51:35.197Z,38.88
2019-01-21T09:54:03.366Z,38.57
2019-01-21T09:56:31.756Z,39.18
2019-01-21T09:59:00.374Z,38.82
2019-01-21T10:01:47.855Z,39.01
2019-01-21T10:04:17.401Z,38.86
2019-01-21T10:06:47.601Z,38.70
2019-01-21T10:09:28.842Z,38.60
2019-01-21T10:12:16.128Z,38.20
2019-01-21T10:15:03.405Z,39.06
2019-01-21T10:17:50.744Z,39.23
2019-01-21T10:20:38.082Z,39.19
2019-01-21T10:23:25.490Z,38.76
2019-01-21T10:25:59.329Z,37.91
2019-01-21T10:28:46.678Z,38.13
2019-01-21T10:31:34.018Z,38.84
2019-01-21T10:34:21.366Z,38.65
2019-01-21T10:37:08.604Z,38.66
2019-01-21T10:39:55.877Z,38.89
2019-01-21T10:42:43.105Z,38.81
2019-01-21T10:45:30.461Z,39.15
2019-01-21T10:48:17.744Z,39.15
2019-01-21T10:51:04.973Z,39.22
2019-01-21T10:53:52.298Z,38.64
2019-01-21T10:56:39.579Z,38.26
2019-01-21T10:59:26.792Z,38.49
2019-01-21T11:02:14.073Z,38.14
2019-01-21T11:05:01.300Z,38.98
2019-01-21T11:07:48.596Z,38.79
2019-01-21T11:10:37.933Z,35.42
2019-01-21T11:13:25.216Z,34.42
2019-01-21T11:16:25.512Z,36.68
2019-01-21T11:19:12.839Z,36.55
2019-01-21T11:22:00.097Z,37.21
2019-01-21T11:24:47.382Z,37.82
2019-01-21T11:27:34.720Z,35.42
2019-01-21T11:30:22.041Z,31.09
2019-01-21T11:33:09.334Z,37.55
2019-01-21T11:35:56.646Z,37.45
2019-01-21T11:38:43.914Z,37.78
2019-01-21T11:41:31.201Z,37.95
2019-01-21T11:44:18.446Z,38.02
2019-01-21T11:47:05.693Z,37.68
2019-01-21T11:49:53.006Z,38.18
2019-01-21T11:52:23.758Z,38.29
2019-01-21T11:55:11.059Z,38.47
2019-01-21T11:57:58.299Z,38.15
2019-01-21T12:00:33.396Z,38.47
2019-01-21T12:03:23.617Z,38.53
2019-01-21T12:05:55.668Z,37.73
2019-01-21T12:08:42.906Z,38.19
2019-01-21T12:11:17.083Z,37.53
2019-01-21T12:14:04.317Z,38.21
2019-01-21T12:16:51.629Z,38.96
2019-01-21T12:19:38.854Z,39.01
2019-01-21T12:22:26.132Z,38.90
2019-01-21T12:25:13.413Z,38.92
2019-01-21T12:28:00.711Z,38.77
2019-01-21T12:30:47.961Z,38.26
2019-01-21T12:33:35.216Z,38.96
2019-01-21T12:36:22.517Z,38.29
2019-01-21T12:39:09.852Z,38.89
2019-01-21T12:41:51.113Z,37.39
2019-01-21T12:44:38.387Z,38.85
2019-01-21T12:47:25.739Z,38.35
2019-01-21T12:50:13.018Z,38.80
2019-01-21T12:52:53.849Z,38.73
2019-01-21T12:55:41.115Z,38.73
2019-01-21T12:58:28.373Z,38.88
2019-01-21T13:01:15.636Z,38.97
2019-01-21T13:03:51.020Z,38.75
2019-01-21T13:06:38.263Z,38.54
2019-01-21T13:09:12.377Z,38.81
2019-01-21T13:11:59.673Z,38.19
2019-01-21T13:14:46.984Z,38.96
2019-01-21T13:17:34.269Z,39.12
2019-01-21T13:20:21.509Z,38.77
2019-01-21T13:25:45.321Z,39.18
2019-01-21T13:28:32.630Z,39.23
2019-01-21T13:31:20.017Z,39.57
2019-01-21T13:34:07.372Z,39.51
2019-01-21T13:36:54.717Z,39.33
2019-01-21T13:39:26.947Z,39.14
2019-01-21T13:42:14.271Z,39.53
2019-01-21T13:45:01.629Z,39.31
2019-01-21T13:47:48.927Z,39.17
2019-01-21T13:50:37.293Z,39.47
2019-01-21T13:53:25.171Z,39.43
2019-01-21T13:56:12.469Z,39.33
2019-01-21T13:58:59.746Z,38.75
2019-01-21T14:01:47.050Z,39.10
2019-01-21T14:04:34.251Z,39.44
2019-01-21T14:07:21.496Z,39.19
2019-01-21T14:10:08.750Z,39.39
2019-01-21T14:12:55.978Z,38.96
2019-01-21T14:15:43.239Z,39.49
2019-01-21T14:18:18.135Z,38.98
2019-01-21T14:20:53.594Z,38.88
2019-01-21T14:23:40.830Z,39.02
2019-01-21T14:26:28.080Z,39.38
2019-01-21T14:29:15.306Z,39.12
2019-01-21T14:32:02.559Z,39.33
2019-01-21T14:34:49.764Z,39.28
2019-01-21T14:37:37.005Z,39.66
2019-01-21T14:40:24.246Z,39.51
2019-01-21T14:43:11.496Z,39.57
2019-01-21T14:45:58.716Z,39.72
2019-01-21T14:48:46.050Z,39.36
2019-01-21T14:51:33.352Z,39.47
2019-01-21T14:54:20.593Z,39.54
2019-01-21T14:57:07.791Z,39.26
2019-01-21T14:59:55.039Z,39.43
2019-01-21T15:02:42.251Z,39.62
2019-01-21T15:05:29.466Z,39.54
2019-01-21T15:08:28.016Z,39.79
2019-01-21T15:11:15.220Z,39.74
2019-01-21T15:14:02.460Z,39.79
2019-01-21T15:16:49.719Z,39.88
2019-01-21T15:19:22.874Z,39.80
2019-01-21T15:22:10.126Z,39.88
2019-01-21T15:24:57.441Z,38.86
2019-01-21T15:27:44.759Z,39.86
2019-01-21T15:30:31.946Z,39.94
2019-01-21T15:33:19.177Z,39.96
2019-01-21T15:36:06.499Z,40.10
2019-01-21T15:38:53.806Z,40.30
2019-01-21T15:41:41.087Z,39.83
2019-01-21T15:44:14.659Z,40.05
2019-01-21T15:47:02.057Z,40.02
2019-01-21T15:49:49.253Z,39.94
2019-01-21T15:52:30.642Z,39.78
2019-01-21T15:55:17.889Z,39.92
2019-01-21T15:57:49.149Z,40.11
2019-01-21T16:00:36.388Z,39.98
2019-01-21T16:03:23.604Z,40.10
2019-01-21T16:06:10.865Z,39.86
2019-01-21T16:08:46.645Z,39.85
2019-01-21T16:11:33.892Z,39.89
2019-01-21T16:14:06.957Z,39.83
2019-01-21T16:16:57.053Z,40.07
2019-01-21T16:19:27.162Z,40.06
2019-01-21T16:22:14.409Z,40.11
2019-01-21T16:25:01.635Z,40.01
2019-01-21T16:27:48.881Z,39.83
2019-01-21T16:30:36.109Z,40.01
2019-01-21T16:33:23.370Z,40.09
2019-01-21T16:35:59.832Z,39.97
2019-01-21T16:38:47.135Z,40.13
2019-01-21T16:41:34.440Z,39.95
2019-01-21T16:44:02.609Z,39.74
2019-01-21T16:46:30.757Z,39.80
2019-01-21T16:48:58.896Z,40.03
2019-01-21T16:51:27.054Z,40.10
2019-01-21T16:53:55.198Z,39.50
2019-01-21T16:56:23.355Z,39.92
2019-01-21T16:58:51.496Z,39.94
2019-01-21T17:01:19.670Z,39.89
2019-01-21T17:03:47.809Z,39.89
2019-01-21T17:06:15.935Z,39.91
2019-01-21T17:08:44.088Z,39.83
2019-01-21T17:11:12.210Z,39.64
2019-01-21T17:13:40.369Z,40.23
2019-01-21T17:16:08.507Z,39.92
2019-01-21T17:18:36.660Z,39.82
2019-01-21T17:21:04.824Z,39.93
2019-01-21T17:23:32.961Z,39.57
2019-01-21T17:26:01.120Z,40.01
2019-01-21T17:28:29.527Z,40.06
2019-01-21T17:30:57.676Z,40.20
2019-01-21T17:33:25.841Z,39.76
2019-01-21T17:35:53.977Z,39.82
2019-01-21T17:38:22.390Z,39.90
2019-01-21T17:40:51.900Z,39.80
2019-01-21T17:43:20.037Z,39.94
2019-01-21T17:45:48.208Z,40.09
2019-01-21T17:48:16.344Z,40.05
2019-01-21T17:50:44.505Z,39.95
2019-01-21T17:53:12.647Z,37.73
2019-01-21T17:55:40.792Z,38.89
2019-01-21T17:58:27.866Z,38.62
2019-01-21T18:00:56.005Z,38.07
2019-01-21T18:03:24.170Z,36.99
2019-01-21T18:05:52.301Z,35.02
2019-01-21T18:08:20.442Z,35.50
2019-01-21T18:10:48.611Z,36.99
2019-01-21T18:13:16.736Z,37.63
2019-01-21T18:15:44.885Z,37.41
2019-01-21T18:18:13.041Z,35.67
2019-01-21T18:20:41.168Z,34.18
2019-01-21T18:23:09.333Z,33.69
2019-01-21T18:25:37.460Z,34.32
2019-01-21T18:28:24.515Z,37.52
2019-01-21T18:30:52.656Z,38.45
2019-01-21T18:33:20.809Z,38.85
2019-01-21T18:35:48.927Z,39.14
2019-01-21T18:38:17.069Z,38.62
2019-01-21T18:40:45.195Z,38.59
2019-01-21T18:43:13.348Z,38.76
2019-01-21T18:45:41.502Z,39.25
2019-01-21T18:48:09.633Z,38.97
2019-01-21T18:50:37.779Z,39.26
2019-01-21T18:53:05.920Z,39.07
2019-01-21T18:55:34.086Z,38.96
2019-01-21T18:58:21.140Z,39.15
2019-01-21T19:00:49.300Z,38.17
2019-01-21T19:03:36.525Z,38.81
2019-01-21T19:06:04.694Z,39.50
2019-01-21T19:08:32.837Z,39.24
2019-01-21T19:11:00.992Z,39.38
2019-01-21T19:13:48.256Z,39.20
2019-01-21T19:16:16.399Z,39.28
2019-01-21T19:18:44.529Z,39.42
2019-01-21T19:21:12.680Z,39.63
2019-01-21T19:23:40.830Z,39.43
2019-01-21T19:26:27.937Z,38.94
2019-01-21T19:28:56.159Z,39.12
2019-01-21T19:31:43.474Z,39.23
2019-01-21T19:34:11.681Z,39.12
2019-01-21T19:36:39.859Z,39.29
2019-01-21T19:39:08.533Z,39.62
2019-01-21T19:41:36.730Z,39.34
2019-01-21T19:44:05.184Z,39.57
2019-01-21T19:46:33.396Z,39.86
2019-01-21T19:49:01.568Z,39.68
2019-01-21T19:51:29.753Z,39.23
2019-01-21T19:53:57.950Z,39.13
2019-01-21T19:56:26.136Z,39.42
2019-01-21T19:58:54.315Z,39.41
2019-01-21T20:01:22.491Z,39.53
2019-01-21T20:04:09.607Z,39.45
2019-01-21T20:06:37.928Z,39.62
2019-01-21T20:09:07.377Z,38.41
2019-01-21T20:11:35.551Z,39.66
2019-01-21T20:14:03.740Z,39.71
2019-01-21T20:16:31.950Z,39.45
2019-01-21T20:19:19.017Z,39.61
2019-01-21T20:21:47.202Z,39.77
2019-01-21T20:24:15.453Z,39.55
2019-01-21T20:26:43.659Z,39.05
2019-01-21T20:29:11.821Z,38.39
2019-01-21T20:31:59.158Z,39.62
2019-01-21T20:34:27.305Z,37.73
2019-01-21T20:36:55.549Z,39.73
2019-01-21T20:39:23.752Z,39.74
2019-01-21T20:41:51.941Z,39.34
2019-01-21T20:44:20.241Z,39.78
2019-01-21T20:46:48.420Z,39.95
2019-01-21T20:49:16.609Z,39.82
2019-01-21T20:51:44.827Z,39.95
2019-01-21T20:54:12.998Z,39.82
2019-01-21T20:56:41.184Z,40.01
2019-01-21T20:59:09.365Z,39.57
2019-01-21T21:01:37.511Z,39.95
2019-01-21T21:04:05.680Z,39.48
2019-01-21T21:06:33.874Z,39.93
2019-01-21T21:09:02.044Z,39.84
2019-01-21T21:11:49.280Z,39.60
2019-01-21T21:14:17.521Z,39.84
2019-01-21T21:16:45.724Z,38.49
2019-01-21T21:19:13.885Z,38.01
2019-01-21T21:21:42.081Z,37.88
2019-01-21T21:24:10.270Z,38.13
2019-01-21T21:26:38.517Z,38.44
2019-01-21T21:29:06.692Z,38.64
2019-01-21T21:31:34.847Z,38.32
2019-01-21T21:34:02.997Z,37.85
2019-01-21T21:36:32.837Z,38.35
2019-01-21T21:39:00.975Z,38.78
2019-01-21T21:41:29.155Z,38.91
2019-01-21T21:43:57.388Z,37.90
2019-01-21T21:46:25.565Z,38.53
2019-01-21T21:48:53.792Z,38.70
2019-01-21T21:51:22.064Z,37.89
2019-01-21T21:53:50.266Z,39.47
2019-01-21T21:56:18.451Z,39.00
2019-01-21T21:58:46.613Z,39.38
2019-01-21T22:01:14.856Z,38.38
2019-01-21T22:03:44.708Z,39.56
2019-01-21T22:06:12.951Z,39.73
2019-01-21T22:08:41.160Z,39.45
2019-01-21T22:11:09.409Z,38.64
2019-01-21T22:13:37.560Z,39.66
2019-01-21T22:18:55.867Z,39.43
2019-01-21T22:21:24.003Z,39.53
2019-01-21T22:23:52.169Z,39.56
2019-01-21T22:26:39.401Z,38.45
2019-01-21T22:29:07.598Z,39.52
2019-01-21T22:31:35.736Z,39.05
2019-01-21T22:34:03.901Z,39.35
2019-01-21T22:36:51.189Z,39.68
2019-01-21T22:39:19.341Z,39.77
2019-01-21T22:42:06.580Z,40.06
2019-01-21T22:44:36.375Z,39.98
2019-01-21T22:47:04.515Z,39.78
2019-01-21T22:49:32.688Z,39.54
2019-01-21T22:52:00.803Z,39.15
2019-01-21T22:54:28.970Z,39.70
2019-01-21T22:56:57.118Z,39.97
2019-01-21T22:59:25.247Z,39.79
2019-01-21T23:01:53.416Z,39.64
2019-01-21T23:04:21.578Z,39.81
2019-01-21T23:06:49.710Z,37.65
2019-01-21T23:09:17.843Z,39.15
2019-01-21T23:11:47.629Z,36.65
2019-01-21T23:14:15.791Z,39.60
2019-01-21T23:16:43.943Z,39.98
2019-01-21T23:19:12.108Z,39.47
2019-01-21T23:21:59.128Z,39.59
2019-01-21T23:24:46.342Z,39.51
2019-01-21T23:27:14.537Z,39.50
2019-01-21T23:29:42.671Z,39.53
2019-01-21T23:32:31.364Z,39.23
2019-01-21T23:37:26.478Z,39.67
2019-01-21T23:39:54.599Z,39.24
2019-01-21T23:42:24.389Z,38.96
2019-01-21T23:44:52.551Z,39.59
2019-01-21T23:47:20.697Z,38.11
2019-01-21T23:49:48.844Z,38.90
2019-01-21T23:52:16.976Z,39.01
2019-01-21T23:54:45.129Z,39.76
